sensor_id;sensor_type;location;lat;lon;timestamp;temperature;humidity
71382;DHT22;60099;45.660;13.804;2022-07-21T00:00:56;28.60;28.70
71382;DHT22;60099;45.660;13.804;2022-07-21T00:03:21;28.60;28.80
71382;DHT22;60099;45.660;13.804;2022-07-21T00:05:47;28.50;28.90
71382;DHT22;60099;45.660;13.804;2022-07-21T00:08:13;28.10;29.20
71382;DHT22;60099;45.660;13.804;2022-07-21T00:10:39;27.90;29.60
71382;DHT22;60099;45.660;13.804;2022-07-21T00:13:06;28.00;29.70
71382;DHT22;60099;45.660;13.804;2022-07-21T00:15:32;28.10;29.60
71382;DHT22;60099;45.660;13.804;2022-07-21T00:18:00;28.10;29.60
71382;DHT22;60099;45.660;13.804;2022-07-21T00:20:26;28.10;29.50
71382;DHT22;60099;45.660;13.804;2022-07-21T00:22:58;28.10;29.70
71382;DHT22;60099;45.660;13.804;2022-07-21T00:25:25;28.00;29.70
71382;DHT22;60099;45.660;13.804;2022-07-21T00:27:51;28.10;29.80
71382;DHT22;60099;45.660;13.804;2022-07-21T00:30:17;28.10;29.80
71382;DHT22;60099;45.660;13.804;2022-07-21T00:32:43;28.20;29.80
71382;DHT22;60099;45.660;13.804;2022-07-21T00:35:10;28.20;29.70
71382;DHT22;60099;45.660;13.804;2022-07-21T00:37:37;28.10;29.30
71382;DHT22;60099;45.660;13.804;2022-07-21T00:40:04;28.10;29.40
71382;DHT22;60099;45.660;13.804;2022-07-21T00:42:31;28.10;29.40
71382;DHT22;60099;45.660;13.804;2022-07-21T00:44:58;28.20;29.40
71382;DHT22;60099;45.660;13.804;2022-07-21T00:47:27;28.20;29.70
71382;DHT22;60099;45.660;13.804;2022-07-21T00:49:53;28.10;29.70
71382;DHT22;60099;45.660;13.804;2022-07-21T00:52:20;28.20;29.90
71382;DHT22;60099;45.660;13.804;2022-07-21T00:54:47;28.20;29.80
71382;DHT22;60099;45.660;13.804;2022-07-21T00:57:14;28.20;30.40
71382;DHT22;60099;45.660;13.804;2022-07-21T00:59:41;28.10;30.00
71382;DHT22;60099;45.660;13.804;2022-07-21T01:02:07;28.10;29.90
71382;DHT22;60099;45.660;13.804;2022-07-21T01:04:33;28.10;29.80
71382;DHT22;60099;45.660;13.804;2022-07-21T01:07:04;28.10;29.80
71382;DHT22;60099;45.660;13.804;2022-07-21T01:09:30;28.10;29.80
71382;DHT22;60099;45.660;13.804;2022-07-21T01:11:57;28.10;29.80
71382;DHT22;60099;45.660;13.804;2022-07-21T01:14:24;28.10;29.70
71382;DHT22;60099;45.660;13.804;2022-07-21T01:16:51;28.20;29.60
71382;DHT22;60099;45.660;13.804;2022-07-21T01:19:17;28.30;29.60
71382;DHT22;60099;45.660;13.804;2022-07-21T01:21:45;28.30;29.50
71382;DHT22;60099;45.660;13.804;2022-07-21T01:24:12;28.30;29.60
71382;DHT22;60099;45.660;13.804;2022-07-21T01:26:49;28.30;29.70
71382;DHT22;60099;45.660;13.804;2022-07-21T01:29:16;28.30;29.60
71382;DHT22;60099;45.660;13.804;2022-07-21T01:31:44;28.30;29.70
71382;DHT22;60099;45.660;13.804;2022-07-21T01:34:11;28.30;29.70
71382;DHT22;60099;45.660;13.804;2022-07-21T01:36:37;28.30;29.80
71382;DHT22;60099;45.660;13.804;2022-07-21T01:39:05;28.30;29.90
71382;DHT22;60099;45.660;13.804;2022-07-21T01:41:50;28.30;30.00
71382;DHT22;60099;45.660;13.804;2022-07-21T01:44:16;28.30;30.00
71382;DHT22;60099;45.660;13.804;2022-07-21T01:46:48;28.30;29.90
71382;DHT22;60099;45.660;13.804;2022-07-21T01:49:15;28.30;29.80
71382;DHT22;60099;45.660;13.804;2022-07-21T01:51:42;28.20;29.90
71382;DHT22;60099;45.660;13.804;2022-07-21T01:54:08;28.20;29.90
71382;DHT22;60099;45.660;13.804;2022-07-21T01:56:36;28.20;30.00
71382;DHT22;60099;45.660;13.804;2022-07-21T01:59:03;28.10;30.40
71382;DHT22;60099;45.660;13.804;2022-07-21T02:01:30;28.10;30.40
71382;DHT22;60099;45.660;13.804;2022-07-21T02:03:59;28.00;30.40
71382;DHT22;60099;45.660;13.804;2022-07-21T02:06:26;28.00;30.30
71382;DHT22;60099;45.660;13.804;2022-07-21T02:08:52;28.00;30.10
71382;DHT22;60099;45.660;13.804;2022-07-21T02:11:18;28.00;30.20
71382;DHT22;60099;45.660;13.804;2022-07-21T02:13:45;28.10;30.20
71382;DHT22;60099;45.660;13.804;2022-07-21T02:16:11;28.10;30.00
71382;DHT22;60099;45.660;13.804;2022-07-21T02:18:37;28.20;30.00
71382;DHT22;60099;45.660;13.804;2022-07-21T02:21:04;28.20;30.00
71382;DHT22;60099;45.660;13.804;2022-07-21T02:23:30;28.20;30.00
71382;DHT22;60099;45.660;13.804;2022-07-21T02:25:56;28.30;30.00
71382;DHT22;60099;45.660;13.804;2022-07-21T02:28:23;28.30;30.00
71382;DHT22;60099;45.660;13.804;2022-07-21T02:30:50;28.30;30.00
71382;DHT22;60099;45.660;13.804;2022-07-21T02:33:16;28.30;30.00
71382;DHT22;60099;45.660;13.804;2022-07-21T02:35:43;28.30;30.00
71382;DHT22;60099;45.660;13.804;2022-07-21T02:38:09;28.30;30.00
71382;DHT22;60099;45.660;13.804;2022-07-21T02:40:35;28.30;30.00
71382;DHT22;60099;45.660;13.804;2022-07-21T02:43:01;28.30;30.10
71382;DHT22;60099;45.660;13.804;2022-07-21T02:45:27;28.30;30.20
71382;DHT22;60099;45.660;13.804;2022-07-21T02:48:04;28.30;30.40
71382;DHT22;60099;45.660;13.804;2022-07-21T02:50:33;28.30;30.40
71382;DHT22;60099;45.660;13.804;2022-07-21T02:53:06;28.30;30.50
71382;DHT22;60099;45.660;13.804;2022-07-21T02:55:33;28.30;30.70
71382;DHT22;60099;45.660;13.804;2022-07-21T02:58:18;28.40;30.80
71382;DHT22;60099;45.660;13.804;2022-07-21T03:00:49;28.30;30.90
71382;DHT22;60099;45.660;13.804;2022-07-21T03:03:16;28.30;30.80
71382;DHT22;60099;45.660;13.804;2022-07-21T03:05:42;28.40;30.80
71382;DHT22;60099;45.660;13.804;2022-07-21T03:08:09;28.40;30.90
71382;DHT22;60099;45.660;13.804;2022-07-21T03:10:36;28.40;31.00
71382;DHT22;60099;45.660;13.804;2022-07-21T03:13:03;28.50;31.10
71382;DHT22;60099;45.660;13.804;2022-07-21T03:15:30;28.40;31.10
71382;DHT22;60099;45.660;13.804;2022-07-21T03:17:56;28.40;31.20
71382;DHT22;60099;45.660;13.804;2022-07-21T03:20:23;28.40;31.20
71382;DHT22;60099;45.660;13.804;2022-07-21T03:22:49;28.40;31.40
71382;DHT22;60099;45.660;13.804;2022-07-21T03:25:15;28.30;31.30
71382;DHT22;60099;45.660;13.804;2022-07-21T03:27:42;28.20;31.60
71382;DHT22;60099;45.660;13.804;2022-07-21T03:30:09;28.20;31.80
71382;DHT22;60099;45.660;13.804;2022-07-21T03:32:35;28.00;32.00
71382;DHT22;60099;45.660;13.804;2022-07-21T03:35:01;28.00;31.90
71382;DHT22;60099;45.660;13.804;2022-07-21T03:37:27;28.00;32.20
71382;DHT22;60099;45.660;13.804;2022-07-21T03:39:53;27.90;32.10
71382;DHT22;60099;45.660;13.804;2022-07-21T03:42:19;28.00;32.00
71382;DHT22;60099;45.660;13.804;2022-07-21T03:44:44;28.10;32.10
71382;DHT22;60099;45.660;13.804;2022-07-21T03:47:10;28.10;32.10
71382;DHT22;60099;45.660;13.804;2022-07-21T03:49:36;28.10;32.30
71382;DHT22;60099;45.660;13.804;2022-07-21T03:52:02;28.10;32.50
71382;DHT22;60099;45.660;13.804;2022-07-21T03:54:28;28.00;32.90
71382;DHT22;60099;45.660;13.804;2022-07-21T03:56:54;27.90;33.10
71382;DHT22;60099;45.660;13.804;2022-07-21T03:59:19;27.90;33.30
71382;DHT22;60099;45.660;13.804;2022-07-21T04:01:45;27.70;33.40
71382;DHT22;60099;45.660;13.804;2022-07-21T04:04:11;27.50;34.00
71382;DHT22;60099;45.660;13.804;2022-07-21T04:06:37;27.50;34.00
71382;DHT22;60099;45.660;13.804;2022-07-21T04:09:03;27.60;34.10
71382;DHT22;60099;45.660;13.804;2022-07-21T04:11:29;27.60;33.90
71382;DHT22;60099;45.660;13.804;2022-07-21T04:13:57;27.70;33.40
71382;DHT22;60099;45.660;13.804;2022-07-21T04:16:23;27.70;33.90
71382;DHT22;60099;45.660;13.804;2022-07-21T04:18:49;27.70;34.10
71382;DHT22;60099;45.660;13.804;2022-07-21T04:21:14;27.70;34.40
71382;DHT22;60099;45.660;13.804;2022-07-21T04:23:40;27.70;34.20
71382;DHT22;60099;45.660;13.804;2022-07-21T04:26:06;27.70;34.50
71382;DHT22;60099;45.660;13.804;2022-07-21T04:28:32;27.60;34.70
71382;DHT22;60099;45.660;13.804;2022-07-21T04:30:58;27.20;35.20
71382;DHT22;60099;45.660;13.804;2022-07-21T04:33:23;27.30;35.40
71382;DHT22;60099;45.660;13.804;2022-07-21T04:35:49;27.30;35.40
71382;DHT22;60099;45.660;13.804;2022-07-21T04:38:15;27.30;35.50
71382;DHT22;60099;45.660;13.804;2022-07-21T04:40:41;27.40;35.50
71382;DHT22;60099;45.660;13.804;2022-07-21T04:43:06;27.50;35.40
71382;DHT22;60099;45.660;13.804;2022-07-21T04:45:32;27.50;35.40
71382;DHT22;60099;45.660;13.804;2022-07-21T04:47:58;27.50;35.80
71382;DHT22;60099;45.660;13.804;2022-07-21T04:50:26;27.50;35.80
71382;DHT22;60099;45.660;13.804;2022-07-21T04:52:52;27.50;36.30
71382;DHT22;60099;45.660;13.804;2022-07-21T04:55:19;27.40;36.30
71382;DHT22;60099;45.660;13.804;2022-07-21T04:57:47;27.50;36.10
71382;DHT22;60099;45.660;13.804;2022-07-21T05:00:15;26.90;37.20
71382;DHT22;60099;45.660;13.804;2022-07-21T05:02:41;26.80;37.60
71382;DHT22;60099;45.660;13.804;2022-07-21T05:05:08;26.80;37.60
71382;DHT22;60099;45.660;13.804;2022-07-21T05:07:34;26.90;37.70
71382;DHT22;60099;45.660;13.804;2022-07-21T05:10:07;27.00;38.00
71382;DHT22;60099;45.660;13.804;2022-07-21T05:12:33;27.00;38.00
71382;DHT22;60099;45.660;13.804;2022-07-21T05:14:59;27.20;37.40
71382;DHT22;60099;45.660;13.804;2022-07-21T05:17:25;27.20;37.00
71382;DHT22;60099;45.660;13.804;2022-07-21T05:19:51;27.30;36.80
71382;DHT22;60099;45.660;13.804;2022-07-21T05:22:17;27.40;36.70
71382;DHT22;60099;45.660;13.804;2022-07-21T05:24:43;27.40;36.90
71382;DHT22;60099;45.660;13.804;2022-07-21T05:27:09;27.30;37.60
71382;DHT22;60099;45.660;13.804;2022-07-21T05:29:34;27.30;38.20
71382;DHT22;60099;45.660;13.804;2022-07-21T05:32:00;27.40;37.70
71382;DHT22;60099;45.660;13.804;2022-07-21T05:34:26;27.40;37.70
71382;DHT22;60099;45.660;13.804;2022-07-21T05:36:52;27.50;36.90
71382;DHT22;60099;45.660;13.804;2022-07-21T05:39:19;27.50;36.80
71382;DHT22;60099;45.660;13.804;2022-07-21T05:41:45;27.50;37.00
71382;DHT22;60099;45.660;13.804;2022-07-21T05:44:11;27.60;36.40
71382;DHT22;60099;45.660;13.804;2022-07-21T05:46:36;27.70;37.20
71382;DHT22;60099;45.660;13.804;2022-07-21T05:49:03;27.70;37.50
71382;DHT22;60099;45.660;13.804;2022-07-21T05:51:28;27.80;36.70
71382;DHT22;60099;45.660;13.804;2022-07-21T05:53:54;27.80;36.40
71382;DHT22;60099;45.660;13.804;2022-07-21T05:56:20;27.90;36.30
71382;DHT22;60099;45.660;13.804;2022-07-21T05:58:46;28.00;36.40
71382;DHT22;60099;45.660;13.804;2022-07-21T06:01:12;28.00;37.00
71382;DHT22;60099;45.660;13.804;2022-07-21T06:03:47;28.10;36.80
71382;DHT22;60099;45.660;13.804;2022-07-21T06:06:14;28.10;35.30
71382;DHT22;60099;45.660;13.804;2022-07-21T06:08:43;28.10;36.10
71382;DHT22;60099;45.660;13.804;2022-07-21T06:11:11;28.10;34.70
71382;DHT22;60099;45.660;13.804;2022-07-21T06:13:38;28.20;34.60
71382;DHT22;60099;45.660;13.804;2022-07-21T06:16:05;28.30;35.50
71382;DHT22;60099;45.660;13.804;2022-07-21T06:18:31;28.30;35.20
71382;DHT22;60099;45.660;13.804;2022-07-21T06:20:57;28.50;34.70
71382;DHT22;60099;45.660;13.804;2022-07-21T06:23:23;28.50;34.30
71382;DHT22;60099;45.660;13.804;2022-07-21T06:25:50;28.50;34.10
71382;DHT22;60099;45.660;13.804;2022-07-21T06:28:16;28.60;34.30
71382;DHT22;60099;45.660;13.804;2022-07-21T06:30:42;28.60;34.40
71382;DHT22;60099;45.660;13.804;2022-07-21T06:33:08;28.60;34.80
71382;DHT22;60099;45.660;13.804;2022-07-21T06:35:34;28.70;35.40
71382;DHT22;60099;45.660;13.804;2022-07-21T06:37:59;28.60;35.80
71382;DHT22;60099;45.660;13.804;2022-07-21T06:40:25;28.60;36.10
71382;DHT22;60099;45.660;13.804;2022-07-21T06:42:51;28.60;36.30
71382;DHT22;60099;45.660;13.804;2022-07-21T06:45:17;28.50;36.10
71382;DHT22;60099;45.660;13.804;2022-07-21T06:47:43;28.60;36.30
71382;DHT22;60099;45.660;13.804;2022-07-21T06:50:09;28.70;36.40
71382;DHT22;60099;45.660;13.804;2022-07-21T06:52:36;28.80;35.70
71382;DHT22;60099;45.660;13.804;2022-07-21T06:55:03;28.80;36.00
71382;DHT22;60099;45.660;13.804;2022-07-21T06:57:30;28.90;36.00
71382;DHT22;60099;45.660;13.804;2022-07-21T06:59:56;28.90;35.70
71382;DHT22;60099;45.660;13.804;2022-07-21T07:02:54;29.00;35.80
71382;DHT22;60099;45.660;13.804;2022-07-21T07:05:20;29.00;35.80
71382;DHT22;60099;45.660;13.804;2022-07-21T07:07:45;29.10;35.90
71382;DHT22;60099;45.660;13.804;2022-07-21T07:10:13;29.10;35.60
71382;DHT22;60099;45.660;13.804;2022-07-21T07:12:39;29.20;35.80
71382;DHT22;60099;45.660;13.804;2022-07-21T07:15:05;29.20;34.90
71382;DHT22;60099;45.660;13.804;2022-07-21T07:17:31;29.30;34.90
71382;DHT22;60099;45.660;13.804;2022-07-21T07:19:57;29.30;34.60
71382;DHT22;60099;45.660;13.804;2022-07-21T07:22:23;29.30;34.10
71382;DHT22;60099;45.660;13.804;2022-07-21T07:24:49;29.40;34.20
71382;DHT22;60099;45.660;13.804;2022-07-21T07:27:14;29.50;34.10
71382;DHT22;60099;45.660;13.804;2022-07-21T07:29:40;29.60;33.80
71382;DHT22;60099;45.660;13.804;2022-07-21T07:32:06;29.70;33.90
71382;DHT22;60099;45.660;13.804;2022-07-21T07:34:32;29.70;34.10
71382;DHT22;60099;45.660;13.804;2022-07-21T07:36:57;29.80;35.00
71382;DHT22;60099;45.660;13.804;2022-07-21T07:39:23;29.90;34.40
71382;DHT22;60099;45.660;13.804;2022-07-21T07:41:49;30.00;34.20
71382;DHT22;60099;45.660;13.804;2022-07-21T07:44:15;30.00;34.00
71382;DHT22;60099;45.660;13.804;2022-07-21T07:46:40;30.00;34.00
71382;DHT22;60099;45.660;13.804;2022-07-21T07:49:06;30.00;35.00
71382;DHT22;60099;45.660;13.804;2022-07-21T07:51:32;30.10;34.70
71382;DHT22;60099;45.660;13.804;2022-07-21T07:53:58;30.20;35.60
71382;DHT22;60099;45.660;13.804;2022-07-21T07:56:26;30.20;35.80
71382;DHT22;60099;45.660;13.804;2022-07-21T07:58:51;30.30;35.70
71382;DHT22;60099;45.660;13.804;2022-07-21T08:01:17;30.30;34.90
71382;DHT22;60099;45.660;13.804;2022-07-21T08:03:44;30.40;34.80
71382;DHT22;60099;45.660;13.804;2022-07-21T08:06:09;30.40;35.00
71382;DHT22;60099;45.660;13.804;2022-07-21T08:08:35;30.50;35.20
71382;DHT22;60099;45.660;13.804;2022-07-21T08:11:01;30.50;34.50
71382;DHT22;60099;45.660;13.804;2022-07-21T08:13:27;30.50;34.60
71382;DHT22;60099;45.660;13.804;2022-07-21T08:15:53;30.50;34.30
71382;DHT22;60099;45.660;13.804;2022-07-21T08:18:19;30.50;33.90
71382;DHT22;60099;45.660;13.804;2022-07-21T08:20:46;30.60;33.50
71382;DHT22;60099;45.660;13.804;2022-07-21T08:23:12;30.60;32.80
71382;DHT22;60099;45.660;13.804;2022-07-21T08:25:39;30.60;32.80
71382;DHT22;60099;45.660;13.804;2022-07-21T08:28:05;30.60;32.30
71382;DHT22;60099;45.660;13.804;2022-07-21T08:30:31;30.60;32.80
71382;DHT22;60099;45.660;13.804;2022-07-21T08:32:58;30.70;32.50
71382;DHT22;60099;45.660;13.804;2022-07-21T08:35:24;30.70;32.20
71382;DHT22;60099;45.660;13.804;2022-07-21T08:37:55;30.70;30.90
71382;DHT22;60099;45.660;13.804;2022-07-21T08:40:23;30.70;30.80
71382;DHT22;60099;45.660;13.804;2022-07-21T08:42:51;30.70;30.70
71382;DHT22;60099;45.660;13.804;2022-07-21T08:45:17;30.80;31.10
71382;DHT22;60099;45.660;13.804;2022-07-21T08:47:43;30.80;30.30
71382;DHT22;60099;45.660;13.804;2022-07-21T08:50:09;30.80;29.80
71382;DHT22;60099;45.660;13.804;2022-07-21T08:52:35;30.80;29.60
71382;DHT22;60099;45.660;13.804;2022-07-21T08:55:01;30.80;29.70
71382;DHT22;60099;45.660;13.804;2022-07-21T08:57:27;30.80;29.90
71382;DHT22;60099;45.660;13.804;2022-07-21T08:59:53;30.90;29.80
71382;DHT22;60099;45.660;13.804;2022-07-21T09:02:33;30.80;29.30
71382;DHT22;60099;45.660;13.804;2022-07-21T09:05:00;30.90;29.20
71382;DHT22;60099;45.660;13.804;2022-07-21T09:07:26;31.00;28.80
71382;DHT22;60099;45.660;13.804;2022-07-21T09:10:00;31.10;28.90
71382;DHT22;60099;45.660;13.804;2022-07-21T09:12:27;31.10;29.60
71382;DHT22;60099;45.660;13.804;2022-07-21T09:15:12;31.20;29.70
71382;DHT22;60099;45.660;13.804;2022-07-21T09:17:39;31.20;29.60
71382;DHT22;60099;45.660;13.804;2022-07-21T09:20:24;31.20;29.70
71382;DHT22;60099;45.660;13.804;2022-07-21T09:23:11;31.20;30.00
71382;DHT22;60099;45.660;13.804;2022-07-21T09:25:41;31.20;30.20
71382;DHT22;60099;45.660;13.804;2022-07-21T09:28:09;31.30;30.30
71382;DHT22;60099;45.660;13.804;2022-07-21T09:36:33;31.40;30.10
71382;DHT22;60099;45.660;13.804;2022-07-21T09:38:53;31.30;30.10
71382;DHT22;60099;45.660;13.804;2022-07-21T09:41:26;31.40;30.70
71382;DHT22;60099;45.660;13.804;2022-07-21T09:43:53;31.40;30.50
71382;DHT22;60099;45.660;13.804;2022-07-21T09:46:27;31.40;31.20
71382;DHT22;60099;45.660;13.804;2022-07-21T09:48:59;31.50;31.40
71382;DHT22;60099;45.660;13.804;2022-07-21T09:51:34;31.60;31.20
71382;DHT22;60099;45.660;13.804;2022-07-21T09:54:06;31.60;31.00
71382;DHT22;60099;45.660;13.804;2022-07-21T09:56:36;31.60;30.20
71382;DHT22;60099;45.660;13.804;2022-07-21T09:59:03;31.70;29.80
71382;DHT22;60099;45.660;13.804;2022-07-21T10:01:29;31.80;29.50
71382;DHT22;60099;45.660;13.804;2022-07-21T10:03:56;31.80;29.30
71382;DHT22;60099;45.660;13.804;2022-07-21T10:06:31;31.90;28.80
71382;DHT22;60099;45.660;13.804;2022-07-21T10:08:58;32.00;28.10
71382;DHT22;60099;45.660;13.804;2022-07-21T10:11:25;32.10;28.10
71382;DHT22;60099;45.660;13.804;2022-07-21T10:13:51;32.10;27.40
71382;DHT22;60099;45.660;13.804;2022-07-21T10:16:17;32.10;27.50
71382;DHT22;60099;45.660;13.804;2022-07-21T10:19:02;32.10;27.20
71382;DHT22;60099;45.660;13.804;2022-07-21T10:24:18;32.10;27.40
71382;DHT22;60099;45.660;13.804;2022-07-21T10:27:06;32.20;27.90
71382;DHT22;60099;45.660;13.804;2022-07-21T10:32:16;32.40;27.00
71382;DHT22;60099;45.660;13.804;2022-07-21T10:34:42;32.50;26.90
71382;DHT22;60099;45.660;13.804;2022-07-21T10:37:09;32.50;27.00
71382;DHT22;60099;45.660;13.804;2022-07-21T10:39:35;32.50;27.60
71382;DHT22;60099;45.660;13.804;2022-07-21T10:42:15;32.50;28.00
71382;DHT22;60099;45.660;13.804;2022-07-21T10:44:43;32.60;27.70
71382;DHT22;60099;45.660;13.804;2022-07-21T10:49:53;32.50;26.60
71382;DHT22;60099;45.660;13.804;2022-07-21T10:55:24;32.50;26.80
71382;DHT22;60099;45.660;13.804;2022-07-21T10:58:16;32.50;26.20
71382;DHT22;60099;45.660;13.804;2022-07-21T11:00:54;32.50;27.00
71382;DHT22;60099;45.660;13.804;2022-07-21T11:03:29;32.50;26.70
71382;DHT22;60099;45.660;13.804;2022-07-21T11:06:21;32.50;26.20
71382;DHT22;60099;45.660;13.804;2022-07-21T11:09:04;32.50;26.70
71382;DHT22;60099;45.660;13.804;2022-07-21T11:11:32;32.60;26.50
71382;DHT22;60099;45.660;13.804;2022-07-21T11:14:12;32.60;27.30
71382;DHT22;60099;45.660;13.804;2022-07-21T11:22:09;32.90;28.50
71382;DHT22;60099;45.660;13.804;2022-07-21T11:24:36;33.00;28.10
71382;DHT22;60099;45.660;13.804;2022-07-21T11:27:08;32.90;27.50
71382;DHT22;60099;45.660;13.804;2022-07-21T11:29:36;32.90;27.50
71382;DHT22;60099;45.660;13.804;2022-07-21T11:32:03;32.90;27.90
71382;DHT22;60099;45.660;13.804;2022-07-21T11:34:44;32.80;28.10
71382;DHT22;60099;45.660;13.804;2022-07-21T11:37:12;32.80;28.60
71382;DHT22;60099;45.660;13.804;2022-07-21T11:39:39;32.80;27.90
71382;DHT22;60099;45.660;13.804;2022-07-21T11:42:10;32.90;26.70
71382;DHT22;60099;45.660;13.804;2022-07-21T11:44:37;32.90;26.40
71382;DHT22;60099;45.660;13.804;2022-07-21T11:47:04;33.00;26.40
71382;DHT22;60099;45.660;13.804;2022-07-21T11:49:32;33.20;27.00
71382;DHT22;60099;45.660;13.804;2022-07-21T11:52:02;33.20;26.80
71382;DHT22;60099;45.660;13.804;2022-07-21T11:57:02;32.90;28.80
71382;DHT22;60099;45.660;13.804;2022-07-21T11:59:29;33.10;30.00
71382;DHT22;60099;45.660;13.804;2022-07-21T12:02:02;33.10;30.20
71382;DHT22;60099;45.660;13.804;2022-07-21T12:04:38;33.10;30.90
71382;DHT22;60099;45.660;13.804;2022-07-21T12:09:56;33.10;28.10
71382;DHT22;60099;45.660;13.804;2022-07-21T12:17:38;33.30;27.40
71382;DHT22;60099;45.660;13.804;2022-07-21T12:20:05;33.20;27.60
71382;DHT22;60099;45.660;13.804;2022-07-21T12:22:33;33.20;29.30
71382;DHT22;60099;45.660;13.804;2022-07-21T12:24:59;33.20;30.00
71382;DHT22;60099;45.660;13.804;2022-07-21T12:27:25;33.30;28.70
71382;DHT22;60099;45.660;13.804;2022-07-21T12:29:51;33.30;29.90
71382;DHT22;60099;45.660;13.804;2022-07-21T12:32:44;33.40;29.40
71382;DHT22;60099;45.660;13.804;2022-07-21T12:35:26;33.30;29.50
71382;DHT22;60099;45.660;13.804;2022-07-21T12:37:53;33.40;30.10
71382;DHT22;60099;45.660;13.804;2022-07-21T12:40:19;33.40;30.00
71382;DHT22;60099;45.660;13.804;2022-07-21T12:42:46;33.40;30.30
71382;DHT22;60099;45.660;13.804;2022-07-21T12:45:21;33.30;30.80
71382;DHT22;60099;45.660;13.804;2022-07-21T12:48:08;33.40;30.90
71382;DHT22;60099;45.660;13.804;2022-07-21T12:50:35;33.30;31.10
71382;DHT22;60099;45.660;13.804;2022-07-21T12:53:05;33.20;30.60
71382;DHT22;60099;45.660;13.804;2022-07-21T12:55:31;33.20;30.60
71382;DHT22;60099;45.660;13.804;2022-07-21T12:57:57;33.30;30.60
71382;DHT22;60099;45.660;13.804;2022-07-21T13:00:22;33.20;29.00
71382;DHT22;60099;45.660;13.804;2022-07-21T13:02:51;33.20;28.10
71382;DHT22;60099;45.660;13.804;2022-07-21T13:05:17;33.30;27.70
71382;DHT22;60099;45.660;13.804;2022-07-21T13:07:43;33.20;28.10
71382;DHT22;60099;45.660;13.804;2022-07-21T13:10:08;33.10;27.70
71382;DHT22;60099;45.660;13.804;2022-07-21T13:12:34;33.10;27.80
71382;DHT22;60099;45.660;13.804;2022-07-21T13:15:00;33.20;27.50
71382;DHT22;60099;45.660;13.804;2022-07-21T13:17:26;33.20;27.60
71382;DHT22;60099;45.660;13.804;2022-07-21T13:19:52;33.20;27.40
71382;DHT22;60099;45.660;13.804;2022-07-21T13:22:17;33.40;27.10
71382;DHT22;60099;45.660;13.804;2022-07-21T13:24:43;33.40;27.00
71382;DHT22;60099;45.660;13.804;2022-07-21T13:27:09;33.30;26.50
71382;DHT22;60099;45.660;13.804;2022-07-21T13:29:35;33.10;26.00
71382;DHT22;60099;45.660;13.804;2022-07-21T13:32:02;33.10;26.30
71382;DHT22;60099;45.660;13.804;2022-07-21T13:34:28;33.20;26.50
71382;DHT22;60099;45.660;13.804;2022-07-21T13:36:54;33.30;25.90
71382;DHT22;60099;45.660;13.804;2022-07-21T13:39:19;33.40;25.40
71382;DHT22;60099;45.660;13.804;2022-07-21T13:41:48;33.50;25.20
71382;DHT22;60099;45.660;13.804;2022-07-21T13:44:13;33.60;24.80
71382;DHT22;60099;45.660;13.804;2022-07-21T13:46:39;33.60;25.10
71382;DHT22;60099;45.660;13.804;2022-07-21T13:49:05;33.50;25.10
71382;DHT22;60099;45.660;13.804;2022-07-21T13:51:31;33.40;25.00
71382;DHT22;60099;45.660;13.804;2022-07-21T13:53:56;33.40;25.70
71382;DHT22;60099;45.660;13.804;2022-07-21T13:56:22;33.40;25.90
71382;DHT22;60099;45.660;13.804;2022-07-21T13:58:48;33.40;26.50
71382;DHT22;60099;45.660;13.804;2022-07-21T14:01:14;33.40;27.20
71382;DHT22;60099;45.660;13.804;2022-07-21T14:03:41;33.40;28.30
71382;DHT22;60099;45.660;13.804;2022-07-21T14:06:08;33.40;29.30
71382;DHT22;60099;45.660;13.804;2022-07-21T14:08:33;33.40;32.40
71382;DHT22;60099;45.660;13.804;2022-07-21T14:10:59;33.30;34.40
71382;DHT22;60099;45.660;13.804;2022-07-21T14:13:25;33.30;35.40
71382;DHT22;60099;45.660;13.804;2022-07-21T14:15:51;33.40;35.60
71382;DHT22;60099;45.660;13.804;2022-07-21T14:18:17;33.40;32.80
71382;DHT22;60099;45.660;13.804;2022-07-21T14:20:43;33.40;31.80
71382;DHT22;60099;45.660;13.804;2022-07-21T14:23:09;33.30;32.80
71382;DHT22;60099;45.660;13.804;2022-07-21T14:25:34;33.30;33.00
71382;DHT22;60099;45.660;13.804;2022-07-21T14:28:00;33.40;32.20
71382;DHT22;60099;45.660;13.804;2022-07-21T14:30:27;33.40;31.60
71382;DHT22;60099;45.660;13.804;2022-07-21T14:32:54;33.50;31.50
71382;DHT22;60099;45.660;13.804;2022-07-21T14:35:20;33.40;31.60
71382;DHT22;60099;45.660;13.804;2022-07-21T14:37:48;33.40;31.90
71382;DHT22;60099;45.660;13.804;2022-07-21T14:40:15;33.20;32.00
71382;DHT22;60099;45.660;13.804;2022-07-21T14:42:41;33.40;32.00
71382;DHT22;60099;45.660;13.804;2022-07-21T14:45:09;33.40;30.70
71382;DHT22;60099;45.660;13.804;2022-07-21T14:47:35;33.40;28.90
71382;DHT22;60099;45.660;13.804;2022-07-21T14:50:00;33.30;28.80
71382;DHT22;60099;45.660;13.804;2022-07-21T14:52:26;33.20;27.60
71382;DHT22;60099;45.660;13.804;2022-07-21T14:54:52;33.20;28.40
71382;DHT22;60099;45.660;13.804;2022-07-21T14:57:18;33.20;28.90
71382;DHT22;60099;45.660;13.804;2022-07-21T14:59:44;33.20;28.40
71382;DHT22;60099;45.660;13.804;2022-07-21T15:02:10;33.20;28.40
71382;DHT22;60099;45.660;13.804;2022-07-21T15:04:35;33.10;28.20
71382;DHT22;60099;45.660;13.804;2022-07-21T15:07:02;33.10;28.40
71382;DHT22;60099;45.660;13.804;2022-07-21T15:09:28;33.00;27.80
71382;DHT22;60099;45.660;13.804;2022-07-21T15:11:53;33.10;28.00
71382;DHT22;60099;45.660;13.804;2022-07-21T15:14:19;33.10;28.10
71382;DHT22;60099;45.660;13.804;2022-07-21T15:16:45;33.20;28.40
71382;DHT22;60099;45.660;13.804;2022-07-21T15:19:11;33.20;28.50
71382;DHT22;60099;45.660;13.804;2022-07-21T15:21:37;33.20;28.30
71382;DHT22;60099;45.660;13.804;2022-07-21T15:24:03;33.10;27.10
71382;DHT22;60099;45.660;13.804;2022-07-21T15:26:29;33.10;27.00
71382;DHT22;60099;45.660;13.804;2022-07-21T15:28:55;33.00;25.80
71382;DHT22;60099;45.660;13.804;2022-07-21T15:31:21;33.00;26.30
71382;DHT22;60099;45.660;13.804;2022-07-21T15:33:46;33.00;24.80
71382;DHT22;60099;45.660;13.804;2022-07-21T15:36:12;33.00;25.10
71382;DHT22;60099;45.660;13.804;2022-07-21T15:38:38;33.00;24.90
71382;DHT22;60099;45.660;13.804;2022-07-21T15:41:04;33.10;25.60
71382;DHT22;60099;45.660;13.804;2022-07-21T15:43:30;33.20;26.00
71382;DHT22;60099;45.660;13.804;2022-07-21T15:45:56;33.20;25.90
71382;DHT22;60099;45.660;13.804;2022-07-21T15:48:22;33.20;25.50
71382;DHT22;60099;45.660;13.804;2022-07-21T15:50:48;33.10;25.60